Time;durP1;ratioP1;P1;durP2;ratioP2;P2;SDS_P1;SDS_P2;PMS_P1;PMS_P2;Temp;Humidity;BMP_temperature;BMP_pressure;BME280_temperature;BME280_humidity;BME280_pressure;Samples;Min_cycle;Max_cycle;Signal;HPM_P1;HPM_P2
2021/08/03 00:00:51;;;;;;;9.65;4.00;;;;;;;16.52;100.00;98423.05;1686825;85;21602;-64
2021/08/03 00:03:21;;;;;;;;;;;;;;;16.50;100.00;98423.29;1689430;84;21047;-65
2021/08/03 00:05:50;;;;;;;11.22;4.60;;;;;;;16.49;100.00;98433.67;1683079;85;20166;-64
2021/08/03 00:08:25;;;;;;;7.15;4.03;;;;;;;16.46;100.00;98423.55;1686846;85;21055;-64
2021/08/03 00:10:53;;;;;;;13.20;4.25;;;;;;;16.44;100.00;98421.13;1686882;84;21067;-64
2021/08/03 00:13:23;;;;;;;5.92;4.22;;;;;;;16.42;100.00;98424.58;1686614;85;21120;-64
2021/08/03 00:15:50;;;;;;;10.45;4.55;;;;;;;16.37;100.00;98429.06;1636216;85;21036;-63
2021/08/03 00:18:19;;;;;;;9.33;4.53;;;;;;;16.34;100.00;98426.90;1658158;85;21539;-64
2021/08/03 00:20:49;;;;;;;9.60;4.60;;;;;;;16.30;100.00;98425.30;1686878;84;21575;-64
2021/08/03 00:23:16;;;;;;;8.48;4.47;;;;;;;16.27;100.00;98435.62;1686640;85;21067;-63
2021/08/03 00:25:44;;;;;;;10.78;4.85;;;;;;;16.24;100.00;98438.28;1686817;85;21566;-64
2021/08/03 00:28:12;;;;;;;6.67;4.62;;;;;;;16.24;100.00;98432.17;1686836;84;21093;-64
2021/08/03 00:30:40;;;;;;;6.37;4.60;;;;;;;16.21;100.00;98424.16;1686996;85;21035;-64
2021/08/03 00:33:08;;;;;;;8.68;4.47;;;;;;;16.22;100.00;98433.73;1658329;85;21079;-65
2021/08/03 00:35:36;;;;;;;10.95;5.60;;;;;;;16.22;100.00;98424.95;1686642;85;21079;-65
2021/08/03 00:38:03;;;;;;;12.73;5.12;;;;;;;16.23;100.00;98430.54;1686925;84;21139;-65
2021/08/03 00:40:36;;;;;;;9.18;5.03;;;;;;;16.22;100.00;98433.73;1686610;85;21110;-64
2021/08/03 00:43:04;;;;;;;13.95;5.75;;;;;;;16.19;100.00;98444.89;1686817;85;21047;-63
2021/08/03 00:45:33;;;;;;;42.48;19.95;;;;;;;16.15;100.00;98432.62;1686741;84;21115;-63
2021/08/03 00:48:01;;;;;;;32.88;14.90;;;;;;;16.12;100.00;98435.00;1679785;85;21072;-63
2021/08/03 00:50:29;;;;;;;27.62;11.33;;;;;;;16.08;100.00;98436.55;1684546;85;21004;-63
2021/08/03 00:52:57;;;;;;;10.63;5.75;;;;;;;16.05;100.00;98434.39;1677229;85;21083;-64
2021/08/03 00:55:26;;;;;;;11.48;5.20;;;;;;;16.03;100.00;98437.31;1677279;85;21111;-64
2021/08/03 00:57:54;;;;;;;9.70;5.60;;;;;;;16.01;100.00;98438.09;1677432;85;21507;-64
2021/08/03 01:00:23;;;;;;;10.95;5.47;;;;;;;16.00;100.00;98435.67;1677106;84;21075;-64
2021/08/03 01:02:52;;;;;;;12.45;5.67;;;;;;;15.98;100.00;98436.46;1656475;85;21527;-64
2021/08/03 01:05:20;;;;;;;10.13;5.60;;;;;;;15.98;100.00;98433.80;1677268;85;21040;-64
2021/08/03 01:08:01;;;;;;;9.83;5.80;;;;;;;15.98;100.00;98435.12;1656062;85;21071;-64
2021/08/03 01:11:09;;;;;;;7.87;5.53;;;;;;;15.99;100.00;98440.19;1677296;85;21068;-64
2021/08/03 01:13:57;;;;;;;11.43;6.00;;;;;;;15.98;100.00;98445.23;1677455;84;21075;-65
2021/08/03 01:16:51;;;;;;;11.43;5.95;;;;;;;15.92;100.00;98447.05;1677068;85;21658;-63
2021/08/03 01:19:38;;;;;;;14.18;6.70;;;;;;;15.86;100.00;98444.06;1677243;84;21064;-64
2021/08/03 01:22:25;;;;;;;13.43;6.80;;;;;;;15.82;100.00;98448.80;1677282;84;21044;-63
2021/08/03 01:25:16;;;;;;;16.75;7.80;;;;;;;15.79;100.00;98446.66;1677338;85;21488;-63
2021/08/03 01:28:29;;;;;;;17.60;7.25;;;;;;;15.77;100.00;98446.09;1677556;84;21583;-63
2021/08/03 01:31:03;;;;;;;12.30;6.90;;;;;;;15.73;100.00;98447.14;1677281;85;21111;-64
2021/08/03 01:33:33;;;;;;;11.68;6.65;;;;;;;15.69;100.00;98451.34;1677243;85;21060;-64
2021/08/03 01:36:03;;;;;;;8.63;6.15;;;;;;;15.68;100.00;98449.74;1677316;85;21103;-64
2021/08/03 01:38:34;;;;;;;10.65;6.90;;;;;;;15.68;100.00;98456.38;1677113;84;21587;-64
2021/08/03 01:41:07;;;;;;;13.48;7.12;;;;;;;15.68;100.00;98454.25;1677606;84;21107;-64
2021/08/03 01:43:36;;;;;;;14.87;6.92;;;;;;;15.65;100.00;98460.36;1677160;84;21064;-64
2021/08/03 01:46:04;;;;;;;11.83;6.85;;;;;;;15.65;100.00;98463.51;1677502;85;21024;-64
2021/08/03 01:48:33;;;;;;;13.78;6.90;;;;;;;15.66;100.00;98465.14;1675317;86;21041;-63
2021/08/03 01:51:02;;;;;;;12.15;7.30;;;;;;;15.66;100.00;98465.94;1642993;86;21080;-63
2021/08/03 01:53:33;;;;;;;11.93;7.90;;;;;;;15.65;100.00;98474.14;1675097;86;21088;-64
2021/08/03 01:56:01;;;;;;;13.18;7.33;;;;;;;15.65;100.00;98465.67;1675113;85;21001;-64
2021/08/03 01:58:30;;;;;;;16.20;7.58;;;;;;;15.64;100.00;98473.87;1675181;85;21013;-64
2021/08/03 02:00:59;;;;;;;13.48;7.70;;;;;;;15.63;100.00;98475.72;1675175;85;21091;-64
2021/08/03 02:03:28;;;;;;;12.07;7.95;;;;;;;15.60;100.00;98477.53;1674922;86;21088;-64
2021/08/03 02:05:58;;;;;;;12.20;7.92;;;;;;;15.57;100.00;98479.34;1672160;86;21079;-64
2021/08/03 02:08:27;;;;;;;14.47;7.72;;;;;;;15.56;100.00;98475.63;1674517;85;21072;-64
2021/08/03 02:10:57;;;;;;;14.28;8.00;;;;;;;15.55;100.00;98476.67;1673704;85;21559;-64
2021/08/03 02:13:25;;;;;;;17.67;8.28;;;;;;;15.53;100.00;98476.91;1653578;86;21112;-64
2021/08/03 02:15:53;;;;;;;14.87;7.95;;;;;;;15.53;100.00;98487.53;1653802;86;21028;-64
2021/08/03 02:18:22;;;;;;;14.55;7.97;;;;;;;15.53;100.00;98485.40;1674900;85;21052;-64
2021/08/03 02:20:53;;;;;;;13.55;8.15;;;;;;;15.53;100.00;98490.19;1675088;85;21056;-64
2021/08/03 02:23:22;;;;;;;17.15;8.68;;;;;;;15.55;100.00;98483.31;1674922;86;21100;-64
2021/08/03 02:25:52;;;;;;;14.70;7.97;;;;;;;15.56;100.00;98484.92;1674653;86;20993;-64
2021/08/03 02:28:20;;;;;;;15.72;9.00;;;;;;;15.55;100.00;98493.41;1675000;86;21052;-65
2021/08/03 02:30:48;;;;;;;14.85;8.60;;;;;;;15.57;100.00;98493.16;1674954;86;21064;-64
2021/08/03 02:33:23;;;;;;;14.05;8.60;;;;;;;15.57;100.00;98493.96;1674720;85;21065;-64
2021/08/03 02:36:08;;;;;;;13.95;8.70;;;;;;;15.56;100.00;98498.20;1631828;86;21059;-65
2021/08/03 02:38:40;;;;;;;16.55;9.03;;;;;;;15.55;100.00;98496.07;1674785;84;21614;-64
2021/08/03 02:41:08;;;;;;;17.52;9.25;;;;;;;15.55;100.00;98508.55;1674941;85;21067;-64
2021/08/03 02:43:38;;;;;;;13.75;8.38;;;;;;;15.55;100.00;98505.37;1675309;85;21092;-64
2021/08/03 02:46:09;;;;;;;13.98;7.83;;;;;;;15.56;100.00;98514.14;1675109;85;21551;-65
2021/08/03 02:48:36;;;;;;;14.85;8.48;;;;;;;15.53;100.00;98506.13;1676261;86;21572;-64
2021/08/03 02:51:04;;;;;;;16.85;7.70;;;;;;;15.48;100.00;98511.90;1676674;85;21544;-65
2021/08/03 02:53:45;;;;;;;14.45;7.53;;;;;;;15.49;100.00;98515.66;1676827;85;22026;-64
2021/08/03 02:56:18;;;;;;;14.13;7.58;;;;;;;15.60;100.00;98521.38;1676862;86;21004;-63
2021/08/03 02:58:58;;;;;;;12.30;7.22;;;;;;;15.80;100.00;98520.02;1677041;85;21083;-63
2021/08/03 03:01:29;;;;;;;20.12;8.15;;;;;;;16.03;100.00;98524.23;1676745;86;21128;-63
2021/08/03 03:04:18;;;;;;;14.50;7.90;;;;;;;16.32;100.00;98524.77;1676867;84;21111;-63
2021/08/03 03:06:56;;;;;;;16.67;7.97;;;;;;;16.65;100.00;98529.84;1676647;86;21107;-63
2021/08/03 03:09:25;;;;;;;13.30;7.97;;;;;;;17.04;99.53;98525.61;1677062;85;21047;-64
2021/08/03 03:11:53;;;;;;;18.25;8.20;;;;;;;17.42;96.22;98528.98;1676855;86;21508;-64
2021/08/03 03:14:22;;;;;;;15.85;8.10;;;;;;;17.73;93.07;98537.95;1676582;85;21080;-64
2021/08/03 03:16:52;;;;;;;;;;;;;;;18.02;90.71;98536.42;1679267;84;21556;-64
2021/08/03 03:19:20;;;;;;;11.73;7.37;;;;;;;18.35;88.15;98543.69;1633936;86;20416;-64
2021/08/03 03:21:49;;;;;;;17.65;8.60;;;;;;;18.70;86.15;98546.92;1676516;86;21116;-64
2021/08/03 03:24:16;;;;;;;15.25;8.28;;;;;;;19.10;83.54;98547.94;1676812;86;21051;-64
2021/08/03 03:26:44;;;;;;;12.30;7.65;;;;;;;19.47;81.00;98544.88;1676846;85;21115;-64
2021/08/03 03:29:14;;;;;;;12.75;7.80;;;;;;;19.79;78.78;98556.56;1677304;85;21464;-64
2021/08/03 03:31:42;;;;;;;11.20;7.58;;;;;;;20.18;76.73;98550.97;1676589;85;21559;-63
2021/08/03 03:34:11;;;;;;;12.75;7.47;;;;;;;20.61;74.46;98546.14;1676890;86;21060;-64
2021/08/03 03:36:41;;;;;;;14.73;8.08;;;;;;;21.01;72.11;98550.08;1676859;85;21197;-64
2021/08/03 03:39:09;;;;;;;14.25;7.78;;;;;;;21.37;69.98;98553.21;1642619;86;21091;-64
2021/08/03 03:41:39;;;;;;;14.35;7.30;;;;;;;21.74;68.35;98554.66;1676602;85;21106;-63
2021/08/03 03:44:08;;;;;;;11.85;6.92;;;;;;;22.12;66.31;98556.03;1676884;86;21064;-64
2021/08/03 03:46:44;;;;;;;11.10;6.62;;;;;;;22.45;64.84;98549.38;1676544;85;21157;-64
2021/08/03 03:49:14;;;;;;;11.93;7.22;;;;;;;22.82;63.16;98561.13;1676429;86;21520;-64
2021/08/03 03:51:44;;;;;;;11.83;7.20;;;;;;;23.23;61.54;98567.98;1676621;84;21543;-64
2021/08/03 03:54:27;;;;;;;11.00;7.35;;;;;;;23.59;59.99;98566.73;1676827;85;21080;-64
2021/08/03 03:56:58;;;;;;;10.80;6.92;;;;;;;23.97;58.42;98561.94;1676731;85;21108;-63
2021/08/03 03:59:28;;;;;;;13.28;7.00;;;;;;;24.32;56.86;98571.67;1676977;85;21041;-65
2021/08/03 04:01:58;;;;;;;12.95;7.78;;;;;;;24.60;55.86;98571.84;1676784;86;21702;-64
2021/08/03 04:04:26;;;;;;;11.85;7.45;;;;;;;24.89;54.62;98564.65;1676941;85;21099;-63
2021/08/03 04:06:55;;;;;;;11.55;6.67;;;;;;;25.17;53.77;98565.83;1676542;85;21619;-64
2021/08/03 04:09:24;;;;;;;10.60;7.40;;;;;;;25.53;52.56;98564.88;1676776;86;21017;-64
2021/08/03 04:11:54;;;;;;;10.95;7.05;;;;;;;25.83;51.44;98572.12;1676196;85;21111;-62
2021/08/03 04:14:26;;;;;;;9.50;6.45;;;;;;;26.13;50.67;98575.02;1676703;86;21111;-64
2021/08/03 04:16:56;;;;;;;9.43;6.17;;;;;;;26.50;49.76;98572.84;1676578;85;21075;-64
2021/08/03 04:19:26;;;;;;;10.55;6.40;;;;;;;26.90;48.48;98574.77;1676777;86;21103;-63
2021/08/03 04:21:55;;;;;;;8.05;6.03;;;;;;;27.26;47.30;98574.36;1676729;85;21101;-64
2021/08/03 04:24:23;;;;;;;10.82;6.58;;;;;;;27.48;46.80;98579.52;1676529;85;21539;-63
2021/08/03 04:26:51;;;;;;;11.97;6.25;;;;;;;27.78;45.74;98585.76;1676881;85;21021;-63
2021/08/03 04:29:19;;;;;;;11.63;6.10;;;;;;;27.97;45.16;98584.52;1676873;84;21527;-63
2021/08/03 04:31:47;;;;;;;13.83;6.47;;;;;;;28.19;44.47;98591.55;1676875;86;21064;-63
2021/08/03 04:34:15;;;;;;;9.45;6.35;;;;;;;28.32;44.10;98590.52;1676614;86;21028;-64
2021/08/03 04:36:43;;;;;;;12.35;6.03;;;;;;;28.51;43.68;98595.48;1676370;85;21120;-64
2021/08/03 04:39:11;;;;;;;9.55;6.22;;;;;;;28.68;43.14;98593.18;1655164;85;21060;-64
2021/08/03 04:41:39;;;;;;;11.60;5.83;;;;;;;28.82;42.65;98597.73;1675207;86;21044;-63
2021/08/03 04:44:08;;;;;;;11.20;5.58;;;;;;;28.98;42.30;98602.00;1655212;85;21556;-62
2021/08/03 04:46:37;;;;;;;10.38;5.83;;;;;;;29.21;42.01;98601.83;1675205;86;21587;-64
2021/08/03 04:49:05;;;;;;;8.03;5.42;;;;;;;29.51;41.45;98604.34;1673882;86;21104;-63
2021/08/03 04:51:33;;;;;;;9.75;6.12;;;;;;;29.77;40.72;98600.76;1673303;85;21048;-63
2021/08/03 04:54:03;;;;;;;8.40;5.42;;;;;;;29.97;39.96;98600.95;1673382;85;21064;-61
2021/08/03 04:56:31;;;;;;;22.25;5.75;;;;;;;30.17;39.45;98607.42;1673696;86;21124;-62
2021/08/03 04:59:00;;;;;;;45.75;8.48;;;;;;;29.98;39.25;98603.89;1673450;85;21040;-64
2021/08/03 05:01:31;;;;;;;26.45;6.80;;;;;;;29.22;40.18;98609.40;1673604;85;21013;-57
2021/08/03 05:04:00;;;;;;;16.30;6.08;;;;;;;28.52;41.52;98616.83;1673793;85;21012;-59
2021/08/03 05:06:28;;;;;;;14.25;5.35;;;;;;;28.00;42.67;98620.45;1674639;86;21095;-58
2021/08/03 05:08:56;;;;;;;13.25;5.62;;;;;;;27.77;43.56;98620.73;1653128;87;21529;-58
2021/08/03 05:11:24;;;;;;;11.40;4.85;;;;;;;27.71;43.76;98622.05;1665082;85;21064;-60
2021/08/03 05:13:52;;;;;;;12.35;5.15;;;;;;;27.68;43.96;98623.22;1668210;86;21048;-57
2021/08/03 05:16:21;;;;;;;10.78;5.08;;;;;;;27.75;43.54;98620.81;1635019;86;21593;-55
2021/08/03 05:18:49;;;;;;;10.72;5.08;;;;;;;27.84;43.06;98632.97;1668550;86;22535;-57
2021/08/03 05:21:17;;;;;;;9.58;4.97;;;;;;;27.89;42.87;98629.52;1665778;86;21040;-58
2021/08/03 05:23:46;;;;;;;11.28;4.83;;;;;;;28.04;42.29;98637.62;1653330;87;21658;-57
2021/08/03 05:26:14;;;;;;;8.48;5.00;;;;;;;28.09;42.30;98629.86;1653206;87;21059;-53
2021/08/03 05:28:42;;;;;;;7.30;4.50;;;;;;;28.16;42.10;98632.84;1652638;87;21059;-55
2021/08/03 05:31:10;;;;;;;7.45;4.85;;;;;;;28.23;41.63;98635.28;1633004;87;21031;-59
2021/08/03 05:33:38;;;;;;;12.40;6.30;;;;;;;28.27;41.70;98635.39;1653375;87;20995;-63
2021/08/03 05:36:06;;;;;;;7.35;5.08;;;;;;;28.40;41.60;98633.04;1668185;86;21065;-59
2021/08/03 05:38:34;;;;;;;10.72;5.28;;;;;;;28.40;41.24;98636.31;1666510;85;21089;-58
2021/08/03 05:41:02;;;;;;;8.80;4.55;;;;;;;28.35;41.88;98637.30;1696586;83;21059;-55
2021/08/03 05:43:30;;;;;;;11.70;5.00;;;;;;;28.45;41.65;98634.20;1688720;83;21022;-59
2021/08/03 05:45:59;;;;;;;10.38;5.30;;;;;;;28.42;41.73;98634.84;1676113;85;21026;-58
2021/08/03 05:48:28;;;;;;;10.13;4.80;;;;;;;28.42;41.75;98631.34;1723160;82;21035;-66
2021/08/03 05:50:55;;;;;;;12.45;4.80;;;;;;;28.46;41.85;98637.14;1710784;82;21031;-65
2021/08/03 05:53:25;;;;;;;9.68;4.50;;;;;;;28.44;42.04;98644.00;1707372;84;21494;-63
2021/08/03 05:55:53;;;;;;;5.00;4.50;;;;;;;28.48;42.01;98639.51;1707934;84;21026;-66
2021/08/03 05:58:20;;;;;;;9.28;4.62;;;;;;;28.56;41.64;98643.52;1706488;84;20973;-64
2021/08/03 06:00:48;;;;;;;6.97;4.60;;;;;;;28.69;41.50;98642.22;1706361;84;21020;-64
2021/08/03 06:03:15;;;;;;;6.70;4.58;;;;;;;28.71;41.80;98652.16;1706326;84;21057;-61
2021/08/03 06:05:43;;;;;;;8.23;4.47;;;;;;;28.68;41.88;98646.85;1707848;84;21505;-63
2021/08/03 06:08:11;;;;;;;7.47;4.80;;;;;;;28.74;41.63;98650.16;1707908;84;21049;-67
2021/08/03 06:10:41;;;;;;;8.23;4.23;;;;;;;28.83;41.58;98640.80;1707769;84;21612;-62
2021/08/03 06:13:11;;;;;;;8.13;4.78;;;;;;;28.83;41.66;98646.22;1658784;84;21109;-64
2021/08/03 06:15:40;;;;;;;10.30;4.80;;;;;;;28.89;41.56;98645.45;1679561;84;21034;-61
2021/08/03 06:18:15;;;;;;;7.42;4.90;;;;;;;28.94;41.51;98641.20;1707176;84;21013;-54
2021/08/03 06:20:44;;;;;;;8.78;4.35;;;;;;;28.93;41.49;98639.63;1672579;85;21551;-65
2021/08/03 06:23:12;;;;;;;10.78;5.12;;;;;;;28.98;41.37;98641.34;1671142;86;21051;-63
2021/08/03 06:25:43;;;;;;;10.38;5.47;;;;;;;29.04;41.20;98644.07;1674151;85;21035;-55
2021/08/03 06:28:11;;;;;;;11.55;6.17;;;;;;;29.04;41.18;98644.07;1675025;85;21087;-59
2021/08/03 06:30:40;;;;;;;11.55;5.40;;;;;;;29.07;40.96;98642.82;1671593;85;21119;-58
2021/08/03 06:33:08;;;;;;;7.20;4.78;;;;;;;29.12;40.52;98649.17;1670798;85;21138;-55
2021/08/03 06:35:36;;;;;;;12.53;5.15;;;;;;;29.15;40.43;98649.88;1674207;85;21068;-54
2021/08/03 06:38:03;;;;;;;7.53;4.83;;;;;;;29.06;40.90;98662.16;1672268;85;21075;-57
2021/08/03 06:40:31;;;;;;;9.73;4.90;;;;;;;29.02;40.92;98648.48;1675494;84;21044;-68
2021/08/03 06:43:07;;;;;;;6.97;4.33;;;;;;;29.09;40.84;98655.51;1670770;86;21127;-64
2021/08/03 06:45:35;;;;;;;8.80;4.30;;;;;;;29.13;40.97;98654.83;1670577;85;21134;-64
2021/08/03 06:48:14;;;;;;;6.65;4.53;;;;;;;29.18;40.89;98657.33;1670508;85;21629;-69
2021/08/03 06:50:54;;;;;;;6.95;4.30;;;;;;;29.09;40.98;98659.58;1678758;85;21020;-60
2021/08/03 06:53:22;;;;;;;;;;;;;;;29.08;41.37;98659.92;1692255;85;21040;-64
2021/08/03 06:55:51;;;;;;;11.10;4.53;;;;;;;29.06;41.41;98661.59;1689283;85;20108;-61
2021/08/03 06:58:27;;;;;;;13.15;4.70;;;;;;;29.02;41.70;98660.70;1688829;85;21144;-65
2021/08/03 07:00:54;;;;;;;12.00;4.03;;;;;;;29.04;41.56;98656.28;1686793;85;21092;-60
2021/08/03 07:03:24;;;;;;;11.10;3.95;;;;;;;29.02;41.46;98653.91;1685433;85;21056;-65
2021/08/03 07:05:57;;;;;;;5.67;4.12;;;;;;;29.04;41.32;98657.08;1670358;86;21093;-65
2021/08/03 07:08:24;;;;;;;8.45;4.00;;;;;;;29.09;40.83;98662.30;1683610;85;21008;-57
2021/08/03 07:10:53;;;;;;;10.93;3.80;;;;;;;29.14;40.81;98657.22;1672499;85;21040;-59
2021/08/03 07:13:21;;;;;;;9.83;4.33;;;;;;;29.20;40.75;98659.16;1700877;84;21589;-61
2021/08/03 07:15:50;;;;;;;9.85;5.00;;;;;;;29.21;40.28;98663.45;1693415;83;21561;-62
2021/08/03 07:18:21;;;;;;;8.07;4.30;;;;;;;29.14;40.50;98655.08;1668663;86;21499;-67
2021/08/03 07:20:50;;;;;;;7.78;3.85;;;;;;;29.10;40.56;98655.73;1711010;83;21719;-65
2021/08/03 07:23:20;;;;;;;8.63;4.08;;;;;;;29.11;40.52;98657.88;1728191;83;21033;-64
2021/08/03 07:25:48;;;;;;;;;;;;;;;29.00;40.57;98658.07;1714651;83;21063;-67
2021/08/03 07:28:19;;;;;;;4.45;3.70;;;;;;;29.00;40.47;98660.78;1681143;85;20425;-64
2021/08/03 07:30:47;;;;;;;4.05;3.65;;;;;;;28.86;41.09;98666.48;1686925;85;21503;-59
2021/08/03 07:33:16;;;;;;;7.53;4.05;;;;;;;28.67;41.63;98659.36;1686579;85;21574;-58
2021/08/03 07:35:44;;;;;;;10.58;3.80;;;;;;;28.50;42.04;98659.76;1700417;84;21011;-56
2021/08/03 07:38:12;;;;;;;8.48;4.28;;;;;;;28.35;42.06;98656.84;1705071;84;21163;-56
2021/08/03 07:40:41;;;;;;;6.58;4.50;;;;;;;28.13;42.46;98656.55;1710361;82;21105;-54
2021/08/03 07:43:09;;;;;;;12.05;4.72;;;;;;;27.95;43.00;98659.91;1719892;83;21034;-54
2021/08/03 07:45:39;;;;;;;5.22;4.30;;;;;;;27.73;43.60;98652.29;1719914;83;21046;-55
2021/08/03 07:48:08;;;;;;;12.65;6.20;;;;;;;27.49;44.23;98657.46;1715471;82;21034;-54
2021/08/03 07:50:36;;;;;;;7.35;5.42;;;;;;;27.33;44.62;98653.13;1680532;83;21094;-58
2021/08/03 07:53:04;;;;;;;9.20;5.00;;;;;;;27.22;44.61;98658.64;1693205;83;21095;-55
2021/08/03 07:55:33;;;;;;;5.83;4.37;;;;;;;27.07;45.25;98664.55;1654990;85;21537;-56
2021/08/03 07:58:01;;;;;;;11.08;4.92;;;;;;;26.96;45.72;98663.52;1674080;84;21111;-60
2021/08/03 08:00:28;;;;;;;8.35;5.03;;;;;;;26.89;46.11;98661.05;1676282;85;21075;-60
2021/08/03 08:02:56;;;;;;;8.60;4.97;;;;;;;26.82;46.31;98664.80;1673595;85;21407;-56
2021/08/03 08:05:24;;;;;;;9.40;4.95;;;;;;;26.73;46.28;98666.17;1666470;85;21045;-54
2021/08/03 08:07:57;;;;;;;7.55;4.20;;;;;;;26.62;46.17;98664.34;1666155;85;21057;-59
2021/08/03 08:10:24;;;;;;;8.08;4.62;;;;;;;26.47;45.91;98660.73;1668631;86;21548;-57
2021/08/03 08:12:54;;;;;;;13.95;4.65;;;;;;;26.28;46.37;98666.42;1669188;85;21524;-63
2021/08/03 08:15:22;;;;;;;8.85;4.30;;;;;;;26.14;47.26;98665.18;1664717;86;21578;-62
2021/08/03 08:17:50;;;;;;;5.92;4.50;;;;;;;26.14;47.08;98661.69;1643932;85;21090;-54
2021/08/03 08:20:18;;;;;;;6.33;3.87;;;;;;;26.16;47.55;98662.19;1640775;87;21040;-53
2021/08/03 08:22:45;;;;;;;7.45;3.80;;;;;;;26.21;46.82;98664.19;1641025;87;21028;-56
2021/08/03 08:25:14;;;;;;;6.72;4.50;;;;;;;26.26;46.49;98663.22;1640883;87;21071;-59
2021/08/03 08:27:41;;;;;;;8.70;4.65;;;;;;;26.29;46.64;98660.45;1644510;87;21082;-56
2021/08/03 08:30:11;;;;;;;11.65;5.40;;;;;;;26.33;46.68;98657.38;1642030;85;21052;-63
2021/08/03 08:32:40;;;;;;;8.30;4.60;;;;;;;26.34;45.92;98661.66;1640640;87;21052;-60
2021/08/03 08:35:09;;;;;;;7.50;4.08;;;;;;;26.20;45.64;98653.11;1659867;86;21056;-57
2021/08/03 08:37:36;;;;;;;6.78;4.08;;;;;;;26.11;45.66;98660.42;1658675;85;21079;-62
2021/08/03 08:40:06;;;;;;;7.58;4.08;;;;;;;26.09;45.72;98655.08;1672959;84;21041;-61
2021/08/03 08:42:34;;;;;;;6.70;3.73;;;;;;;26.01;46.11;98649.91;1665625;83;21524;-58
2021/08/03 08:45:04;;;;;;;7.42;3.95;;;;;;;26.13;46.56;98652.80;1662833;85;21042;-58
2021/08/03 08:47:32;;;;;;;7.70;3.83;;;;;;;26.30;46.22;98650.67;1662890;85;21226;-57
2021/08/03 08:50:06;;;;;;;5.17;3.77;;;;;;;26.49;45.44;98657.16;1680645;84;21081;-55
2021/08/03 08:52:35;;;;;;;4.47;3.77;;;;;;;26.63;45.43;98649.70;1694941;83;20980;-62
2021/08/03 08:55:04;;;;;;;10.18;4.42;;;;;;;26.79;45.19;98641.12;1694140;85;21577;-59
2021/08/03 08:57:32;;;;;;;9.65;4.10;;;;;;;26.87;45.24;98648.41;1692817;85;21032;-54
2021/08/03 09:00:00;;;;;;;9.58;4.37;;;;;;;26.86;44.54;98648.18;1692510;85;21484;-62
2021/08/03 09:02:41;;;;;;;6.15;4.20;;;;;;;26.86;44.65;98640.06;1665340;86;21024;-57
2021/08/03 09:05:11;;;;;;;4.58;3.55;;;;;;;26.92;45.02;98638.78;1663128;84;21050;-56
2021/08/03 09:07:52;;;;;;;7.83;4.28;;;;;;;26.80;43.92;98638.64;1723126;83;21095;-56
2021/08/03 09:10:39;;;;;;;7.47;4.15;;;;;;;26.51;45.11;98648.75;1712523;83;21562;-57
2021/08/03 09:13:20;;;;;;;10.53;4.00;;;;;;;26.38;44.75;98645.86;1689950;85;21076;-58
2021/08/03 09:16:00;;;;;;;5.05;3.70;;;;;;;26.20;45.38;98642.87;1664887;86;21059;-60
2021/08/03 09:18:40;;;;;;;7.55;3.72;;;;;;;26.22;45.25;98640.66;1693225;85;21047;-56
2021/08/03 09:21:18;;;;;;;4.05;3.25;;;;;;;26.25;44.78;98646.77;1688967;85;21091;-55
2021/08/03 09:23:54;;;;;;;4.62;3.25;;;;;;;26.38;44.17;98646.38;1656128;85;21083;-57
2021/08/03 09:26:43;;;;;;;4.72;3.58;;;;;;;26.53;44.21;98643.25;1665231;85;21051;-57
2021/08/03 09:29:12;;;;;;;6.37;3.60;;;;;;;26.71;43.41;98642.69;1690992;85;21071;-59
2021/08/03 09:31:41;;;;;;;4.40;3.50;;;;;;;26.90;43.58;98644.52;1669972;86;21055;-59
2021/08/03 09:34:12;;;;;;;4.97;3.17;;;;;;;27.04;42.88;98641.63;1652012;87;21123;-58
2021/08/03 09:36:48;;;;;;;4.80;3.10;;;;;;;27.08;42.52;98637.77;1651722;86;21159;-55
2021/08/03 09:39:46;;;;;;;4.97;3.20;;;;;;;27.11;41.85;98636.54;1666496;86;21079;-56
2021/08/03 09:42:27;;;;;;;4.10;3.35;;;;;;;27.06;42.09;98635.36;1681842;84;20984;-54
2021/08/03 09:45:09;;;;;;;5.95;3.25;;;;;;;27.07;41.74;98626.68;1699555;84;21075;-52
2021/08/03 09:47:36;;;;;;;5.22;2.90;;;;;;;26.97;41.83;98632.66;1698773;84;21528;-54
2021/08/03 09:50:08;;;;;;;4.72;3.30;;;;;;;26.80;42.44;98641.34;1693780;84;21052;-53
2021/08/03 09:52:39;;;;;;;3.40;3.10;;;;;;;26.76;42.47;98638.48;1679105;85;21048;-56
2021/08/03 09:55:18;;;;;;;4.97;3.27;;;;;;;26.84;42.49;98633.63;1642718;85;21008;-63
2021/08/03 09:57:47;;;;;;;7.37;3.20;;;;;;;26.90;42.14;98636.97;1676952;86;21107;-53
2021/08/03 10:00:25;;;;;;;4.30;2.92;;;;;;;26.97;41.49;98629.95;1677078;85;21090;-56
2021/08/03 10:02:54;;;;;;;4.53;3.30;;;;;;;26.99;40.94;98629.06;1677170;85;21056;-55
2021/08/03 10:05:22;;;;;;;3.87;3.17;;;;;;;27.06;41.15;98634.53;1676755;86;21121;-58
2021/08/03 10:07:51;;;;;;;6.97;3.30;;;;;;;27.14;40.88;98635.91;1675825;85;21045;-59
2021/08/03 10:10:19;;;;;;;5.97;3.10;;;;;;;27.14;40.97;98634.56;1673619;86;20997;-57
2021/08/03 10:12:47;;;;;;;6.67;3.80;;;;;;;27.09;41.04;98631.23;1673642;86;21118;-63
2021/08/03 10:15:17;;;;;;;5.95;3.33;;;;;;;27.05;40.92;98635.66;1673599;86;21096;-61
2021/08/03 10:17:46;;;;;;;7.15;3.85;;;;;;;27.00;41.18;98625.23;1676495;85;21539;-62
2021/08/03 10:20:14;;;;;;;6.15;4.12;;;;;;;27.07;40.98;98622.09;1691039;85;21056;-61
2021/08/03 10:22:46;;;;;;;7.47;3.98;;;;;;;27.05;41.34;98618.07;1690502;85;21076;-59
2021/08/03 10:25:15;;;;;;;9.08;4.00;;;;;;;26.81;41.46;98626.15;1683971;85;21072;-59
2021/08/03 10:27:49;;;;;;;8.43;4.10;;;;;;;26.43;42.23;98632.19;1677545;84;22220;-55
2021/08/03 10:30:34;;;;;;;6.35;3.45;;;;;;;26.17;42.86;98636.76;1680317;85;21491;-56
2021/08/03 10:33:12;;;;;;;6.95;4.05;;;;;;;26.01;43.28;98635.05;1655594;86;21088;-56
2021/08/03 10:35:49;;;;;;;4.90;3.52;;;;;;;25.81;43.75;98637.00;1642631;85;21139;-59
2021/08/03 10:38:43;;;;;;;;;;;;;;;;;;;;;
2021/08/03 10:41:00;;;;;;;4.62;3.85;;;;;;;25.64;44.94;98641.75;1647444;86;21064;-59
2021/08/03 10:43:39;;;;;;;6.83;3.72;;;;;;;25.66;44.85;98648.42;1656081;85;21085;-56
2021/08/03 10:46:12;;;;;;;4.58;3.98;;;;;;;25.77;44.32;98647.62;1679514;85;21071;-58
2021/08/03 10:48:42;;;;;;;6.67;4.00;;;;;;;25.77;43.70;98639.52;1662392;85;21099;-55
2021/08/03 10:51:20;;;;;;;7.65;4.40;;;;;;;25.59;44.04;98645.94;1674371;85;21571;-56
2021/08/03 10:54:12;;;;;;;4.03;3.62;;;;;;;25.41;43.95;98639.11;1671556;86;21107;-55
2021/08/03 10:56:58;;;;;;;5.62;3.70;;;;;;;25.25;44.00;98640.61;1674039;84;21542;-59
2021/08/03 10:59:40;;;;;;;6.97;3.60;;;;;;;25.24;44.42;98642.28;1654917;86;21517;-59
2021/08/03 11:02:40;;;;;;;7.47;4.20;;;;;;;25.35;44.08;98632.82;1675309;86;21080;-55
2021/08/03 11:05:08;;;;;;;7.13;4.80;;;;;;;25.50;42.35;98632.95;1674706;86;21086;-60
2021/08/03 11:07:37;;;;;;;10.75;6.30;;;;;;;25.50;42.35;98632.95;1683967;84;21949;-64
2021/08/03 11:10:20;;;;;;;10.08;6.08;;;;;;;25.43;43.14;98639.59;1671397;86;21059;-60
2021/08/03 11:12:50;;;;;;;7.33;4.83;;;;;;;25.51;44.03;98631.28;1693909;84;21026;-58
2021/08/03 11:15:26;;;;;;;8.08;3.75;;;;;;;25.76;43.50;98633.88;1698705;84;21640;-62
2021/08/03 11:18:11;;;;;;;6.58;4.03;;;;;;;26.01;43.69;98631.56;1698891;84;21510;-58
2021/08/03 11:20:49;;;;;;;8.30;3.92;;;;;;;26.26;43.55;98629.45;1673905;84;21115;-62
2021/08/03 11:23:17;;;;;;;6.17;3.50;;;;;;;26.35;42.10;98630.82;1682225;85;21003;-54
2021/08/03 11:25:47;;;;;;;9.68;4.00;;;;;;;26.15;42.25;98627.63;1669402;84;21033;-59
2021/08/03 11:28:22;;;;;;;5.30;3.40;;;;;;;25.93;42.62;98623.69;1669430;86;21013;-53
2021/08/03 11:30:51;;;;;;;9.75;3.67;;;;;;;25.79;42.88;98625.14;1665037;85;21122;-55
2021/08/03 11:33:20;;;;;;;4.40;3.33;;;;;;;25.77;43.38;98632.77;1641375;86;21082;-56
2021/08/03 11:35:48;;;;;;;4.40;3.50;;;;;;;25.90;42.68;98628.35;1656992;85;21094;-56
2021/08/03 11:38:19;;;;;;;7.30;3.45;;;;;;;26.03;42.92;98630.13;1666150;85;21562;-53
2021/08/03 11:40:47;;;;;;;10.20;3.85;;;;;;;26.13;42.90;98626.34;1653631;87;21098;-59
2021/08/03 11:43:16;;;;;;;3.85;3.45;;;;;;;26.17;42.56;98621.91;1661973;85;21028;-59
2021/08/03 11:45:43;;;;;;;5.35;3.55;;;;;;;26.17;41.39;98624.60;1685138;85;21025;-62
2021/08/03 11:48:22;;;;;;;7.40;3.35;;;;;;;26.16;42.33;98614.91;1648988;84;21018;-58